Time;durP1;ratioP1;P1;durP2;ratioP2;P2;SDS_P1;SDS_P2;PMS_P1;PMS_P2;Temp;Humidity;BMP_temperature;BMP_pressure;BME280_temperature;BME280_humidity;BME280_pressure;Samples;Min_cycle;Max_cycle;Signal;HPM_P1;HPM_P2
2021/07/17 00:01:37;;;;;;;15.57;13.63;;;25.40;62.30;;;;;;4945025;28;20593;-46
2021/07/17 00:04:03;;;;;;;16.03;14.10;;;25.40;62.50;;;;;;4952571;28;20191;-46
2021/07/17 00:06:29;;;;;;;14.93;13.43;;;25.40;62.40;;;;;;4948240;28;20435;-49
2021/07/17 00:08:55;;;;;;;15.30;13.80;;;25.40;62.30;;;;;;4946811;28;20495;-47
2021/07/17 00:11:21;;;;;;;17.27;14.10;;;25.40;62.20;;;;;;4946459;28;20275;-51
2021/07/17 00:13:49;;;;;;;15.00;13.50;;;25.40;62.20;;;;;;4950198;28;20235;-49
2021/07/17 00:16:19;;;;;;;15.73;14.13;;;25.40;62.00;;;;;;4947839;28;20192;-48
2021/07/17 00:18:45;;;;;;;16.03;13.27;;;25.40;61.90;;;;;;4943201;28;20479;-46
2021/07/17 00:21:11;;;;;;;15.77;14.13;;;25.40;62.00;;;;;;4947537;28;20449;-49
2021/07/17 00:23:37;;;;;;;14.83;13.40;;;25.40;62.00;;;;;;4943914;28;20444;-48
2021/07/17 00:26:03;;;;;;;17.73;13.83;;;25.40;61.90;;;;;;4943358;28;20675;-47
2021/07/17 00:28:30;;;;;;;17.73;14.40;;;25.40;61.90;;;;;;4950031;28;20207;-47
2021/07/17 00:30:56;;;;;;;19.10;14.07;;;25.40;62.00;;;;;;4947186;28;20495;-49
2021/07/17 00:33:22;;;;;;;16.00;14.30;;;25.30;62.10;;;;;;4950709;28;20538;-47
2021/07/17 00:35:47;;;;;;;16.10;13.70;;;25.30;62.20;;;;;;4949893;28;20215;-48
2021/07/17 00:38:13;;;;;;;15.57;13.97;;;25.30;62.30;;;;;;4954570;28;20207;-49
2021/07/17 00:40:39;;;;;;;17.70;13.90;;;25.30;62.40;;;;;;4954626;28;20206;-51
2021/07/17 00:43:05;;;;;;;19.17;15.00;;;25.30;62.10;;;;;;4950647;28;20200;-51
2021/07/17 00:45:30;;;;;;;17.73;14.97;;;25.30;62.10;;;;;;4950133;28;20250;-47
2021/07/17 00:47:56;;;;;;;19.00;14.00;;;25.30;62.00;;;;;;4954771;28;20192;-50
2021/07/17 00:50:22;;;;;;;17.60;15.73;;;25.20;61.90;;;;;;4953292;28;20664;-52
2021/07/17 00:52:48;;;;;;;17.03;15.40;;;25.10;62.00;;;;;;4950648;28;20294;-50
2021/07/17 00:55:14;;;;;;;16.13;14.40;;;25.00;62.40;;;;;;4950458;28;20943;-50
2021/07/17 00:57:41;;;;;;;21.23;16.67;;;24.90;62.50;;;;;;4953782;29;20270;-49
2021/07/17 01:00:12;;;;;;;18.03;16.10;;;24.80;62.60;;;;;;4951982;28;20458;-48
2021/07/17 01:02:46;;;;;;;18.20;14.67;;;24.80;62.70;;;;;;4950654;28;20457;-51
2021/07/17 01:05:13;;;;;;;20.60;15.47;;;24.70;63.00;;;;;;4949853;28;20461;-52
2021/07/17 01:07:39;;;;;;;19.87;16.37;;;24.70;63.20;;;;;;4954019;28;20462;-49
2021/07/17 01:10:07;;;;;;;17.17;14.33;;;24.70;63.30;;;;;;4952838;28;21038;-50
2021/07/17 01:12:32;;;;;;;17.40;14.97;;;24.70;63.30;;;;;;4954394;29;20675;-46
2021/07/17 01:14:58;;;;;;;16.77;14.90;;;24.60;63.40;;;;;;4953760;28;20442;-47
2021/07/17 01:17:24;;;;;;;17.60;14.93;;;24.60;63.50;;;;;;4950005;28;20223;-50
2021/07/17 01:19:50;;;;;;;17.80;15.60;;;24.60;63.60;;;;;;4952042;28;20215;-49
2021/07/17 01:22:16;;;;;;;17.50;15.03;;;24.60;63.70;;;;;;4953248;28;20231;-48
2021/07/17 01:24:45;;;;;;;17.90;14.70;;;24.60;63.60;;;;;;4950234;28;20288;-50
2021/07/17 01:27:18;;;;;;;16.70;13.93;;;24.70;63.60;;;;;;4952716;28;20458;-48
2021/07/17 01:29:46;;;;;;;19.33;15.80;;;24.70;63.70;;;;;;4951667;28;20467;-50
2021/07/17 01:32:12;;;;;;;18.57;15.20;;;24.60;63.50;;;;;;4950901;28;20553;-50
2021/07/17 01:34:37;;;;;;;19.47;16.13;;;24.70;63.60;;;;;;4951140;28;20448;-49
2021/07/17 01:37:03;;;;;;;18.73;16.70;;;24.70;63.50;;;;;;4951531;28;20848;-48
2021/07/17 01:39:29;;;;;;;20.30;15.43;;;24.70;63.50;;;;;;4948981;28;20267;-49
2021/07/17 01:41:55;;;;;;;18.73;15.30;;;24.70;63.10;;;;;;4947898;28;20671;-51
2021/07/17 01:44:20;;;;;;;17.40;15.27;;;24.60;63.40;;;;;;4948047;28;20761;-49
2021/07/17 01:46:47;;;;;;;19.37;14.43;;;24.70;63.70;;;;;;4949477;28;20188;-52
2021/07/17 01:49:13;;;;;;;19.07;16.17;;;24.70;63.70;;;;;;4948283;28;20200;-46
2021/07/17 01:51:39;;;;;;;17.40;15.17;;;24.80;63.70;;;;;;4949644;28;20979;-46
2021/07/17 01:54:04;;;;;;;19.27;15.60;;;24.80;63.40;;;;;;4953654;28;20227;-45
2021/07/17 01:56:30;;;;;;;17.80;15.90;;;24.80;63.20;;;;;;4948124;29;20543;-46
2021/07/17 01:58:56;;;;;;;16.87;14.40;;;24.80;62.90;;;;;;4951403;28;20200;-46
2021/07/17 02:01:27;;;;;;;17.93;15.50;;;24.80;63.10;;;;;;4948242;28;20204;-47
2021/07/17 02:03:53;;;;;;;17.33;15.53;;;24.70;63.10;;;;;;4951336;28;20211;-46
2021/07/17 02:06:31;;;;;;;19.90;15.90;;;24.70;63.30;;;;;;4951620;28;21989;-46
2021/07/17 02:08:57;;;;;;;17.63;15.40;;;24.80;63.50;;;;;;4952792;28;20452;-46
2021/07/17 02:11:23;;;;;;;20.80;15.50;;;24.70;63.20;;;;;;4952258;28;20490;-51
2021/07/17 02:13:50;;;;;;;16.17;14.43;;;24.70;63.10;;;;;;4950322;28;20881;-45
2021/07/17 02:16:15;;;;;;;17.30;15.33;;;24.60;63.20;;;;;;4951205;28;20644;-46
2021/07/17 02:18:42;;;;;;;19.17;15.93;;;24.60;63.30;;;;;;4952360;28;20482;-51
2021/07/17 02:21:08;;;;;;;20.93;16.53;;;24.50;63.40;;;;;;4947924;28;20235;-47
2021/07/17 02:23:35;;;;;;;18.30;15.27;;;24.50;63.50;;;;;;4951330;28;20510;-47
2021/07/17 02:26:00;;;;;;;18.33;15.47;;;24.60;63.80;;;;;;4950958;29;20192;-50
2021/07/17 02:28:26;;;;;;;19.50;16.17;;;24.40;64.00;;;;;;4951906;28;20986;-49
2021/07/17 02:30:52;;;;;;;21.27;15.20;;;24.40;64.00;;;;;;4950178;28;20304;-51
2021/07/17 02:33:19;;;;;;;22.57;16.40;;;24.40;64.40;;;;;;4943580;28;20292;-46
2021/07/17 02:35:44;;;;;;;21.60;17.30;;;24.40;64.50;;;;;;4948788;28;20451;-49
2021/07/17 02:38:10;;;;;;;16.90;15.20;;;24.40;64.60;;;;;;4950977;28;20459;-47
2021/07/17 02:40:36;;;;;;;16.33;14.63;;;24.30;64.50;;;;;;4951809;28;20192;-46
2021/07/17 02:43:02;;;;;;;17.17;15.13;;;24.20;64.50;;;;;;4948400;28;20192;-48
2021/07/17 02:45:27;;;;;;;27.70;16.87;;;24.20;64.70;;;;;;4951675;28;20207;-50
2021/07/17 02:47:53;;;;;;;19.93;15.70;;;24.10;64.80;;;;;;4949749;28;20447;-49
2021/07/17 02:50:19;;;;;;;17.50;15.70;;;24.10;65.00;;;;;;4950728;28;20219;-48
2021/07/17 02:52:45;;;;;;;22.73;15.57;;;24.00;65.10;;;;;;4947737;28;20395;-48
2021/07/17 02:55:11;;;;;;;17.77;15.80;;;23.80;65.40;;;;;;4948621;28;21012;-49
2021/07/17 02:57:37;;;;;;;18.17;16.27;;;23.70;65.90;;;;;;4951819;28;20200;-47
2021/07/17 03:00:06;;;;;;;21.07;17.03;;;23.70;65.90;;;;;;4952867;28;20502;-47
2021/07/17 03:02:31;;;;;;;17.43;15.60;;;23.60;66.00;;;;;;4950442;28;20200;-49
2021/07/17 03:04:57;;;;;;;17.53;15.60;;;23.60;66.00;;;;;;4951749;28;20447;-46
2021/07/17 03:07:22;;;;;;;21.83;16.97;;;23.60;66.10;;;;;;4950697;28;20196;-46
2021/07/17 03:09:48;;;;;;;19.27;16.60;;;23.60;66.30;;;;;;4946830;28;20191;-48
2021/07/17 03:12:14;;;;;;;16.93;15.13;;;23.60;66.30;;;;;;4951633;28;20231;-52
2021/07/17 03:14:39;;;;;;;18.70;15.70;;;23.50;66.20;;;;;;4949618;28;20196;-50
2021/07/17 03:17:05;;;;;;;17.40;15.40;;;23.50;66.40;;;;;;4948494;29;20224;-45
2021/07/17 03:19:30;;;;;;;17.23;15.43;;;23.60;66.30;;;;;;4954196;29;20619;-49
2021/07/17 03:21:56;;;;;;;16.90;15.10;;;23.70;66.20;;;;;;4950897;28;20287;-46
2021/07/17 03:24:22;;;;;;;23.00;16.80;;;23.60;66.30;;;;;;4950527;28;20196;-47
2021/07/17 03:26:47;;;;;;;20.93;15.37;;;23.60;66.10;;;;;;4950171;28;20361;-46
2021/07/17 03:29:13;;;;;;;17.40;15.60;;;23.70;66.00;;;;;;4951039;28;20674;-48
2021/07/17 03:31:38;;;;;;;20.03;16.90;;;23.70;66.00;;;;;;4950255;28;20240;-47
2021/07/17 03:34:05;;;;;;;20.07;15.70;;;23.70;66.00;;;;;;4950610;29;20212;-46
2021/07/17 03:36:30;;;;;;;17.30;15.43;;;23.80;65.80;;;;;;4949644;28;20618;-48
2021/07/17 03:38:56;;;;;;;17.90;15.20;;;23.80;65.80;;;;;;4951746;28;20451;-50
2021/07/17 03:41:22;;;;;;;21.40;15.23;;;23.90;65.60;;;;;;4950977;28;20200;-49
2021/07/17 03:43:48;;;;;;;18.50;15.97;;;23.90;65.60;;;;;;4949944;28;20196;-46
2021/07/17 03:46:14;;;;;;;19.07;15.53;;;23.90;65.30;;;;;;4948119;28;20283;-52
2021/07/17 03:48:40;;;;;;;18.37;14.20;;;23.90;65.30;;;;;;4951644;28;20534;-47
2021/07/17 03:51:06;;;;;;;20.70;15.37;;;23.90;65.10;;;;;;4950796;28;20196;-47
2021/07/17 03:53:33;;;;;;;18.93;15.67;;;23.90;65.20;;;;;;4949845;28;20591;-46
2021/07/17 03:55:58;;;;;;;17.83;15.87;;;24.00;65.10;;;;;;4948726;28;20813;-51
2021/07/17 03:58:24;;;;;;;21.73;16.30;;;23.90;64.80;;;;;;4951628;28;20453;-47
2021/07/17 04:00:50;;;;;;;19.33;15.40;;;24.00;65.00;;;;;;4945422;29;20212;-51
2021/07/17 04:03:15;;;;;;;19.23;17.23;;;23.90;64.90;;;;;;4951432;28;20644;-50
2021/07/17 04:05:41;;;;;;;20.13;17.03;;;23.90;65.00;;;;;;4950760;28;20994;-50
2021/07/17 04:08:07;;;;;;;24.00;15.43;;;23.90;65.10;;;;;;4950535;28;20211;-46
2021/07/17 04:10:33;;;;;;;21.07;16.93;;;23.90;64.90;;;;;;4939974;28;20944;-51
2021/07/17 04:12:59;;;;;;;19.20;16.60;;;23.80;64.90;;;;;;4944082;28;20483;-47
2021/07/17 04:15:24;;;;;;;18.80;16.20;;;23.80;65.20;;;;;;4947381;28;20204;-51
2021/07/17 04:17:50;;;;;;;20.00;16.23;;;23.80;65.30;;;;;;4951032;28;20223;-48
2021/07/17 04:20:16;;;;;;;23.13;15.80;;;23.70;65.30;;;;;;4941328;28;20243;-47
2021/07/17 04:22:42;;;;;;;18.43;15.27;;;23.70;65.40;;;;;;4944813;28;20198;-49
2021/07/17 04:25:08;;;;;;;20.00;15.77;;;23.60;65.40;;;;;;4943681;28;20209;-46
2021/07/17 04:27:34;;;;;;;20.30;15.47;;;23.60;65.60;;;;;;4945398;28;20223;-51
2021/07/17 04:30:00;;;;;;;19.30;15.73;;;23.60;65.80;;;;;;4945119;28;20473;-50
2021/07/17 04:32:26;;;;;;;19.10;16.47;;;23.50;65.80;;;;;;4947999;28;20227;-48
2021/07/17 04:34:51;;;;;;;16.93;15.13;;;23.50;65.70;;;;;;4949143;28;20222;-50
2021/07/17 04:37:18;;;;;;;19.30;16.20;;;23.40;65.60;;;;;;4948093;28;20276;-50
2021/07/17 04:39:45;;;;;;;19.03;16.17;;;23.40;65.80;;;;;;4953139;29;20200;-48
2021/07/17 04:42:11;;;;;;;18.13;16.20;;;23.40;65.80;;;;;;4947237;28;20605;-46
2021/07/17 04:44:36;;;;;;;17.27;15.07;;;23.30;66.20;;;;;;4949170;28;20482;-46
2021/07/17 04:47:03;;;;;;;19.73;17.03;;;23.30;66.30;;;;;;4947368;28;20230;-46
2021/07/17 04:49:28;;;;;;;20.60;16.23;;;23.30;66.20;;;;;;4950714;28;20271;-49
2021/07/17 04:51:54;;;;;;;18.13;16.20;;;23.30;66.30;;;;;;4950405;28;20622;-47
2021/07/17 04:54:19;;;;;;;18.80;16.80;;;23.30;66.30;;;;;;4948901;28;20561;-46
2021/07/17 04:56:45;;;;;;;20.50;16.27;;;23.30;66.20;;;;;;4948290;28;20196;-46
2021/07/17 04:59:11;;;;;;;18.87;15.77;;;23.30;66.20;;;;;;4948900;28;21069;-47
2021/07/17 05:01:36;;;;;;;18.57;16.50;;;23.30;66.20;;;;;;4949501;28;20200;-47
2021/07/17 05:04:02;;;;;;;24.90;17.30;;;23.40;66.20;;;;;;4947731;28;20200;-47
2021/07/17 05:06:28;;;;;;;18.60;16.67;;;23.40;66.10;;;;;;4946574;28;20219;-51
2021/07/17 05:08:53;;;;;;;24.90;18.40;;;23.40;66.20;;;;;;4949757;28;20476;-46
2021/07/17 05:11:19;;;;;;;21.90;17.40;;;23.30;66.30;;;;;;4951019;28;20224;-50
2021/07/17 05:13:44;;;;;;;19.50;16.53;;;23.30;66.40;;;;;;4951888;29;20278;-46
2021/07/17 05:16:10;;;;;;;20.83;16.67;;;23.40;66.50;;;;;;4946069;28;20192;-50
2021/07/17 05:18:36;;;;;;;20.23;16.83;;;23.30;66.60;;;;;;4951064;28;20612;-48
2021/07/17 05:21:01;;;;;;;20.30;16.53;;;23.40;66.70;;;;;;4951491;28;20218;-46
2021/07/17 05:23:27;;;;;;;17.20;14.50;;;23.40;66.40;;;;;;4952612;28;20675;-47
2021/07/17 05:25:53;;;;;;;16.67;14.67;;;23.40;68.00;;;;;;4946775;28;20200;-47
2021/07/17 05:28:20;;;;;;;18.53;16.60;;;23.60;67.50;;;;;;4953274;28;20196;-47
2021/07/17 05:30:46;;;;;;;19.40;16.40;;;23.70;66.40;;;;;;4953145;28;20211;-46
2021/07/17 05:33:12;;;;;;;17.50;14.73;;;23.70;65.30;;;;;;4952448;28;20486;-47
2021/07/17 05:35:38;;;;;;;17.77;15.87;;;23.70;65.20;;;;;;4954349;29;20203;-47
2021/07/17 05:38:06;;;;;;;18.10;15.50;;;23.80;65.30;;;;;;4951952;28;20547;-51
2021/07/17 05:40:32;;;;;;;20.83;16.07;;;23.90;65.10;;;;;;4952801;28;20184;-46
2021/07/17 05:42:58;;;;;;;25.80;16.70;;;23.90;64.80;;;;;;4951842;28;20969;-48
2021/07/17 05:45:24;;;;;;;21.63;15.93;;;24.00;64.50;;;;;;4952353;28;20451;-51
2021/07/17 05:47:50;;;;;;;19.83;16.70;;;24.00;64.30;;;;;;4952479;28;20196;-51
2021/07/17 05:50:17;;;;;;;20.03;17.47;;;24.00;64.20;;;;;;4954202;29;20199;-49
2021/07/17 05:52:43;;;;;;;21.60;16.57;;;23.90;64.40;;;;;;4952236;29;20263;-51
2021/07/17 05:55:10;;;;;;;18.57;16.20;;;23.90;64.70;;;;;;4942921;29;20472;-47
2021/07/17 05:57:35;;;;;;;19.87;17.33;;;23.80;65.00;;;;;;4951232;29;20195;-47
2021/07/17 06:00:04;;;;;;;19.77;16.10;;;23.70;65.40;;;;;;4953314;28;20440;-50
2021/07/17 06:02:29;;;;;;;20.30;16.40;;;23.70;65.80;;;;;;4940679;29;20807;-49
2021/07/17 06:04:55;;;;;;;23.73;17.20;;;23.70;66.00;;;;;;4954394;29;20451;-49
2021/07/17 06:07:20;;;;;;;18.40;16.00;;;23.70;66.00;;;;;;4952039;28;20224;-50
2021/07/17 06:09:46;;;;;;;21.23;17.00;;;23.70;65.90;;;;;;4955489;29;20188;-48
2021/07/17 06:12:12;;;;;;;22.20;15.47;;;23.70;66.20;;;;;;4950809;29;20231;-46
2021/07/17 06:14:38;;;;;;;20.23;16.30;;;23.70;66.10;;;;;;4955040;29;20275;-46
2021/07/17 06:17:04;;;;;;;21.20;16.03;;;23.70;66.00;;;;;;4947414;28;20212;-51
2021/07/17 06:19:30;;;;;;;18.00;15.80;;;23.70;65.80;;;;;;4952658;28;20494;-47
2021/07/17 06:21:56;;;;;;;18.30;16.10;;;23.80;66.00;;;;;;4952823;29;20494;-46
2021/07/17 06:24:22;;;;;;;20.97;16.47;;;23.90;65.70;;;;;;4954623;29;20447;-47
2021/07/17 06:26:47;;;;;;;21.60;16.50;;;23.90;65.60;;;;;;4950039;29;20208;-46
2021/07/17 06:29:13;;;;;;;21.30;16.23;;;23.90;65.30;;;;;;4947896;29;20443;-51
2021/07/17 06:31:39;;;;;;;21.67;16.10;;;24.00;65.50;;;;;;4949844;28;20597;-47
2021/07/17 06:34:04;;;;;;;19.90;16.47;;;24.00;65.50;;;;;;4952975;28;20200;-46
2021/07/17 06:36:31;;;;;;;20.17;17.50;;;24.00;65.50;;;;;;4953850;29;20211;-46
2021/07/17 06:38:57;;;;;;;16.47;14.77;;;24.00;65.60;;;;;;4945204;28;20223;-46
2021/07/17 06:41:23;;;;;;;26.00;16.33;;;24.00;65.70;;;;;;4947960;29;20444;-47
2021/07/17 06:43:48;;;;;;;18.47;16.57;;;24.00;65.50;;;;;;4949560;29;20203;-47
2021/07/17 06:46:14;;;;;;;20.67;18.30;;;24.00;65.30;;;;;;4945655;28;20200;-49
2021/07/17 06:48:40;;;;;;;23.00;17.70;;;24.10;65.30;;;;;;4952354;28;20196;-45
2021/07/17 06:51:08;;;;;;;18.40;16.47;;;24.20;65.40;;;;;;4951675;29;20250;-47
2021/07/17 06:53:36;;;;;;;20.17;17.57;;;24.20;65.20;;;;;;4952121;28;20486;-46
2021/07/17 06:56:02;;;;;;;21.93;17.67;;;24.20;65.30;;;;;;4951027;29;20440;-48
2021/07/17 06:58:28;;;;;;;25.97;18.03;;;24.00;65.80;;;;;;4952313;28;20474;-49
2021/07/17 07:00:54;;;;;;;21.00;17.80;;;24.00;66.00;;;;;;4953632;29;20204;-48
2021/07/17 07:03:19;;;;;;;19.67;17.43;;;24.00;66.10;;;;;;4946395;29;20204;-47
2021/07/17 07:05:45;;;;;;;21.80;17.53;;;24.00;66.20;;;;;;4950403;28;20738;-49
2021/07/17 07:08:10;;;;;;;26.20;17.83;;;24.00;66.20;;;;;;4951108;28;20219;-47
2021/07/17 07:10:36;;;;;;;19.07;16.93;;;24.00;66.30;;;;;;4952183;29;20235;-51
2021/07/17 07:13:17;;;;;;;19.53;17.37;;;24.00;66.50;;;;;;4952865;29;20223;-50
2021/07/17 07:15:42;;;;;;;19.03;16.80;;;23.90;66.90;;;;;;4939182;29;20212;-51
2021/07/17 07:18:11;;;;;;;28.60;18.27;;;23.90;67.40;;;;;;4950593;29;20593;-49
2021/07/17 07:20:36;;;;;;;24.20;17.97;;;23.90;67.60;;;;;;4952454;29;20241;-48
2021/07/17 07:23:02;;;;;;;20.23;16.90;;;23.90;67.30;;;;;;4952823;29;20530;-50
2021/07/17 07:25:28;;;;;;;22.07;17.67;;;23.90;67.20;;;;;;4948738;29;20200;-49
2021/07/17 07:27:54;;;;;;;20.77;16.13;;;23.90;67.00;;;;;;4950511;28;20443;-50
2021/07/17 07:30:20;;;;;;;24.30;17.43;;;23.90;67.30;;;;;;4946415;28;20709;-50
2021/07/17 07:32:49;;;;;;;23.50;18.57;;;23.90;67.40;;;;;;4952103;28;20314;-51
2021/07/17 07:35:16;;;;;;;22.00;18.90;;;23.90;67.20;;;;;;4952073;28;20294;-47
2021/07/17 07:37:42;;;;;;;24.67;18.00;;;24.00;67.10;;;;;;4950758;29;20523;-47
2021/07/17 07:40:08;;;;;;;21.73;19.30;;;24.00;66.70;;;;;;4935247;29;20546;-48
2021/07/17 07:42:33;;;;;;;21.00;17.43;;;23.90;66.90;;;;;;4948575;29;20906;-48
2021/07/17 07:44:59;;;;;;;21.33;18.40;;;23.90;66.70;;;;;;4944833;29;20442;-47
2021/07/17 07:47:25;;;;;;;20.40;17.57;;;23.90;66.80;;;;;;4950031;29;20204;-50
2021/07/17 07:49:54;;;;;;;23.87;17.10;;;24.00;67.20;;;;;;4953024;29;20239;-47
2021/07/17 07:52:19;;;;;;;23.57;17.63;;;24.00;67.00;;;;;;4934713;29;20688;-47
2021/07/17 07:54:46;;;;;;;21.10;18.03;;;24.00;67.00;;;;;;4949979;29;20471;-48
2021/07/17 07:57:12;;;;;;;24.63;18.67;;;24.10;66.80;;;;;;4953021;28;20227;-47
2021/07/17 07:59:38;;;;;;;28.17;20.17;;;24.10;66.80;;;;;;4952868;29;20471;-47
2021/07/17 08:02:04;;;;;;;22.60;17.77;;;24.10;66.70;;;;;;4952057;28;21162;-49
2021/07/17 08:04:29;;;;;;;24.03;18.67;;;24.10;66.70;;;;;;4953075;28;20432;-51
2021/07/17 08:06:55;;;;;;;20.43;17.80;;;24.20;66.60;;;;;;4951869;28;20542;-47
2021/07/17 08:09:21;;;;;;;23.37;19.23;;;24.10;66.90;;;;;;4953176;29;20200;-52
2021/07/17 08:11:47;;;;;;;23.60;19.23;;;24.10;67.10;;;;;;4952256;28;20224;-48
2021/07/17 08:14:12;;;;;;;26.17;18.97;;;24.10;67.20;;;;;;4953482;29;20192;-49
2021/07/17 08:16:38;;;;;;;26.80;18.70;;;24.20;67.20;;;;;;4948680;28;20541;-47
2021/07/17 08:19:03;;;;;;;28.17;20.90;;;24.20;67.30;;;;;;4943666;29;20650;-48
2021/07/17 08:21:29;;;;;;;21.03;17.00;;;24.20;67.50;;;;;;4951598;29;20210;-49
2021/07/17 08:23:55;;;;;;;24.50;19.43;;;24.20;67.50;;;;;;4944229;28;20567;-52
2021/07/17 08:26:22;;;;;;;26.43;19.63;;;24.20;67.50;;;;;;4947268;29;20236;-50
2021/07/17 08:28:47;;;;;;;24.00;17.47;;;24.20;67.20;;;;;;4944474;29;20433;-47
2021/07/17 08:31:13;;;;;;;21.27;17.87;;;24.30;67.20;;;;;;4943140;29;20863;-50
2021/07/17 08:33:38;;;;;;;19.30;17.00;;;24.30;67.10;;;;;;4953187;29;20652;-50
2021/07/17 08:36:04;;;;;;;22.70;19.60;;;24.40;66.90;;;;;;4951353;29;20306;-50
2021/07/17 08:38:30;;;;;;;21.03;17.67;;;24.50;66.70;;;;;;4957607;28;20191;-47
2021/07/17 08:40:57;;;;;;;21.77;17.47;;;24.50;65.90;;;;;;4946910;28;20262;-48
2021/07/17 08:43:23;;;;;;;20.03;16.77;;;24.40;66.00;;;;;;4945914;29;20282;-51
2021/07/17 08:45:49;;;;;;;18.90;16.90;;;24.40;65.60;;;;;;4950272;28;20440;-47
2021/07/17 08:48:16;;;;;;;21.30;17.43;;;24.50;65.60;;;;;;4943394;29;20924;-47
2021/07/17 08:50:42;;;;;;;20.80;16.57;;;24.50;66.40;;;;;;4941881;29;20444;-48
2021/07/17 08:53:08;;;;;;;26.53;16.40;;;24.50;65.90;;;;;;4952516;29;20487;-47
2021/07/17 08:55:34;;;;;;;17.57;14.90;;;24.60;65.90;;;;;;4951821;28;20447;-51
2021/07/17 08:58:01;;;;;;;20.87;15.40;;;24.60;66.00;;;;;;4956625;28;20495;-50
2021/07/17 09:00:29;;;;;;;16.50;14.80;;;24.80;65.30;;;;;;4952302;28;20444;-51
2021/07/17 09:03:07;;;;;;;18.70;16.10;;;24.70;65.20;;;;;;4937235;29;20488;-52
2021/07/17 09:05:36;;;;;;;15.40;13.73;;;24.80;65.30;;;;;;4943026;29;20431;-48
2021/07/17 09:08:02;;;;;;;20.93;16.10;;;24.80;64.90;;;;;;4955859;29;20506;-49
2021/07/17 09:10:29;;;;;;;18.33;15.60;;;24.90;64.80;;;;;;4955191;29;20498;-49
2021/07/17 09:13:21;;;;;;;16.23;14.53;;;24.90;64.50;;;;;;4942221;29;20527;-50
2021/07/17 09:15:56;;;;;;;21.83;14.77;;;24.90;64.50;;;;;;4946679;28;20930;-48
2021/07/17 09:18:21;;;;;;;20.57;15.00;;;25.10;64.30;;;;;;4955521;28;20470;-51
2021/07/17 09:21:00;;;;;;;17.10;15.30;;;25.00;63.30;;;;;;4955422;28;20819;-49
2021/07/17 09:23:34;;;;;;;17.13;14.50;;;25.10;63.40;;;;;;4941698;29;20542;-48
2021/07/17 09:26:07;;;;;;;17.67;15.03;;;25.10;63.20;;;;;;4958056;28;20434;-49
2021/07/17 09:28:33;;;;;;;19.87;16.47;;;25.00;63.50;;;;;;4950049;29;20436;-48
2021/07/17 09:31:00;;;;;;;22.50;16.10;;;25.10;63.30;;;;;;4950527;29;20861;-51
2021/07/17 09:33:28;;;;;;;17.10;15.30;;;25.00;63.30;;;;;;4954566;29;20223;-48
2021/07/17 09:35:55;;;;;;;24.43;15.80;;;25.00;63.90;;;;;;4955058;29;20436;-53
2021/07/17 09:38:22;;;;;;;18.50;15.40;;;25.00;63.70;;;;;;4956011;29;20514;-47
2021/07/17 09:40:50;;;;;;;17.67;14.93;;;25.00;63.20;;;;;;4953708;28;20920;-48
2021/07/17 09:43:34;;;;;;;19.30;14.80;;;25.10;63.10;;;;;;4935432;28;21573;-53
2021/07/17 09:46:01;;;;;;;18.03;16.23;;;25.10;62.90;;;;;;4950861;29;20529;-48
2021/07/17 09:48:32;;;;;;;17.70;15.10;;;25.10;62.70;;;;;;4955822;29;20786;-48
2021/07/17 09:51:01;;;;;;;18.40;15.93;;;25.00;62.90;;;;;;4954124;28;20494;-47
2021/07/17 09:53:42;;;;;;;16.07;14.30;;;25.00;63.10;;;;;;4944298;29;20843;-50
2021/07/17 09:56:16;;;;;;;18.90;16.23;;;25.00;63.40;;;;;;4939045;28;20448;-49
2021/07/17 09:58:42;;;;;;;19.63;15.67;;;24.90;63.80;;;;;;4936605;29;20951;-48
2021/07/17 10:01:23;;;;;;;20.33;15.77;;;24.90;64.20;;;;;;4944461;29;20440;-48
2021/07/17 10:03:52;;;;;;;18.93;15.10;;;25.00;64.30;;;;;;4955284;29;20202;-47
2021/07/17 10:06:33;;;;;;;16.30;14.80;;;25.10;63.80;;;;;;4964382;28;20922;-48
2021/07/17 10:09:00;;;;;;;17.53;15.47;;;25.20;63.30;;;;;;4954601;28;20435;-52
2021/07/17 10:11:27;;;;;;;18.70;15.73;;;25.30;63.00;;;;;;4953387;29;20882;-49
2021/07/17 10:13:54;;;;;;;19.23;15.57;;;25.20;62.90;;;;;;4935999;29;20928;-50
2021/07/17 10:16:27;;;;;;;19.33;14.67;;;25.30;63.00;;;;;;4949551;29;20438;-51
2021/07/17 10:18:56;;;;;;;17.90;14.17;;;25.40;63.20;;;;;;4954634;29;20473;-52
2021/07/17 10:21:23;;;;;;;18.83;16.17;;;25.40;62.40;;;;;;4943947;28;20436;-50
2021/07/17 10:23:50;;;;;;;17.10;14.87;;;25.50;62.00;;;;;;4946453;29;20803;-48
2021/07/17 10:26:16;;;;;;;18.93;15.23;;;25.50;63.00;;;;;;4945116;28;20519;-48
2021/07/17 10:28:42;;;;;;;17.73;15.13;;;25.40;63.30;;;;;;4955013;29;20543;-47
2021/07/17 10:31:08;;;;;;;20.43;13.93;;;25.50;62.70;;;;;;4953351;29;20518;-49
2021/07/17 10:33:35;;;;;;;15.10;13.50;;;25.70;63.00;;;;;;4945435;28;20502;-54
2021/07/17 10:36:07;;;;;;;16.43;13.50;;;25.90;61.80;;;;;;4956193;28;20659;-47
2021/07/17 10:38:34;;;;;;;19.17;16.23;;;25.90;62.00;;;;;;4954983;29;20435;-48
2021/07/17 10:41:00;;;;;;;18.17;14.43;;;26.00;61.60;;;;;;4953350;29;20443;-50
2021/07/17 10:43:26;;;;;;;20.47;13.93;;;26.00;61.90;;;;;;4954718;29;20788;-48
2021/07/17 10:45:53;;;;;;;17.13;14.57;;;26.10;61.30;;;;;;4951782;29;20520;-49
2021/07/17 10:48:26;;;;;;;17.57;13.70;;;26.20;60.50;;;;;;4954534;29;20479;-49
2021/07/17 10:50:52;;;;;;;19.33;14.67;;;26.40;60.20;;;;;;4945461;28;20443;-49
2021/07/17 10:53:40;;;;;;;16.97;14.90;;;26.50;59.70;;;;;;4961664;28;20519;-48
2021/07/17 10:56:27;;;;;;;18.13;13.10;;;26.50;59.30;;;;;;4953556;28;20442;-49
2021/07/17 10:59:00;;;;;;;16.97;13.23;;;26.60;59.90;;;;;;4954132;29;20435;-49
2021/07/17 11:01:28;;;;;;;15.10;13.50;;;26.60;59.80;;;;;;4951505;29;20958;-49
2021/07/17 11:03:54;;;;;;;14.87;13.27;;;26.70;60.10;;;;;;4955064;28;20431;-52
2021/07/17 11:06:30;;;;;;;17.47;13.30;;;26.70;59.40;;;;;;4946156;29;20438;-51
2021/07/17 11:08:57;;;;;;;16.73;12.90;;;26.80;59.20;;;;;;4954094;29;20435;-52
2021/07/17 11:11:30;;;;;;;19.90;14.73;;;26.80;58.90;;;;;;4952689;29;20436;-51
2021/07/17 11:14:03;;;;;;;18.63;13.87;;;26.80;59.00;;;;;;4954277;29;20789;-49
2021/07/17 11:16:43;;;;;;;15.40;13.80;;;26.80;59.30;;;;;;4944598;29;20501;-50
2021/07/17 11:19:38;;;;;;;14.80;12.83;;;26.90;59.00;;;;;;4953037;28;20471;-49
2021/07/17 11:22:13;;;;;;;15.23;13.73;;;26.90;58.60;;;;;;4932859;29;20462;-51
2021/07/17 11:24:40;;;;;;;15.17;13.63;;;26.80;58.70;;;;;;4939143;29;20445;-49
2021/07/17 11:27:17;;;;;;;16.90;13.10;;;26.80;58.80;;;;;;4952482;29;20510;-53
2021/07/17 11:29:48;;;;;;;19.00;13.70;;;26.80;59.00;;;;;;4951485;29;20451;-50
2021/07/17 11:32:17;;;;;;;16.60;13.10;;;26.80;58.90;;;;;;4955809;28;20570;-52
2021/07/17 11:34:45;;;;;;;16.23;13.70;;;26.70;58.80;;;;;;4950372;28;20451;-49
2021/07/17 11:37:13;;;;;;;15.23;13.73;;;26.60;59.50;;;;;;4952555;28;20451;-50
2021/07/17 11:39:44;;;;;;;14.80;13.20;;;26.70;59.40;;;;;;4953747;29;20766;-51
2021/07/17 11:42:12;;;;;;;16.87;13.90;;;26.70;59.30;;;;;;4952391;29;20539;-52
2021/07/17 11:44:41;;;;;;;15.00;12.50;;;26.70;59.30;;;;;;4950825;28;20444;-52
2021/07/17 11:47:10;;;;;;;13.77;12.30;;;26.80;59.10;;;;;;4952913;29;20856;-50
2021/07/17 11:49:44;;;;;;;14.50;13.00;;;26.70;58.90;;;;;;4944849;29;20448;-49
2021/07/17 11:52:13;;;;;;;15.30;13.80;;;26.80;58.80;;;;;;4952163;28;20483;-49
2021/07/17 11:54:42;;;;;;;18.33;16.43;;;26.80;59.00;;;;;;4945621;29;20517;-49
2021/07/17 11:57:18;;;;;;;20.20;18.20;;;26.80;59.10;;;;;;4941274;29;20998;-49
2021/07/17 11:59:57;;;;;;;22.03;14.03;;;26.80;59.20;;;;;;4953615;29;20443;-51
2021/07/17 12:02:24;;;;;;;22.53;14.93;;;26.80;59.20;;;;;;4947008;28;20440;-51
2021/07/17 12:04:53;;;;;;;17.63;14.40;;;26.80;59.30;;;;;;4934630;29;20432;-50
2021/07/17 12:07:24;;;;;;;15.47;13.70;;;26.80;59.40;;;;;;4942852;29;20440;-51
2021/07/17 12:09:52;;;;;;;16.73;15.00;;;26.70;59.50;;;;;;4953221;28;20491;-49
2021/07/17 12:12:23;;;;;;;16.07;13.53;;;26.70;59.60;;;;;;4951697;28;20495;-50
2021/07/17 12:15:10;;;;;;;18.13;14.30;;;26.80;59.70;;;;;;4953018;29;20446;-53
2021/07/17 12:17:39;;;;;;;18.57;14.37;;;26.80;60.30;;;;;;4948845;29;20479;-50
2021/07/17 12:20:12;;;;;;;15.53;12.63;;;26.70;59.50;;;;;;4948673;28;20542;-51
2021/07/17 12:22:55;;;;;;;15.47;13.47;;;26.60;59.60;;;;;;4940125;28;20484;-51
2021/07/17 12:25:33;;;;;;;15.73;13.23;;;26.50;60.20;;;;;;4956425;28;20467;-50
2021/07/17 12:28:05;;;;;;;17.83;13.43;;;26.50;60.00;;;;;;4954813;28;20562;-53
2021/07/17 12:30:42;;;;;;;14.43;12.90;;;26.60;59.70;;;;;;4953034;28;20439;-52